createdAt,value
2023-03-18T00:01:32.460Z,5.2
2023-03-18T00:06:32.774Z,5.3
2023-03-18T00:11:32.562Z,5.2
2023-03-18T00:16:32.993Z,5.3
2023-03-18T00:21:32.481Z,5.3
2023-03-18T00:26:32.638Z,5.4
2023-03-18T00:31:32.453Z,5.5
2023-03-18T00:36:32.689Z,5.4
2023-03-18T00:41:32.508Z,5.8
2023-03-18T00:46:32.678Z,5.7
2023-03-18T00:51:32.805Z,5.6
2023-03-18T00:56:32.607Z,5.6
2023-03-18T01:01:32.566Z,5.7
2023-03-18T01:06:32.617Z,5.6
2023-03-18T01:11:32.809Z,5.6
2023-03-18T01:21:33.180Z,5.6
2023-03-18T01:26:33.199Z,5.7
2023-03-18T01:31:32.760Z,5.8
2023-03-18T01:36:32.605Z,5.7
2023-03-18T01:41:32.662Z,5.6
2023-03-18T01:46:32.433Z,5.8
2023-03-18T01:51:34.102Z,5.8
2023-03-18T01:56:32.537Z,5.7
2023-03-18T02:01:32.712Z,5.6
2023-03-18T02:06:32.475Z,5.4
2023-03-18T02:11:32.578Z,5.3
2023-03-18T02:16:32.584Z,4.9
2023-03-18T02:21:32.849Z,4.9
2023-03-18T02:26:33.668Z,4.8
2023-03-18T02:31:32.716Z,4.8
2023-03-18T02:36:32.710Z,4.6
2023-03-18T02:41:32.715Z,4.6
2023-03-18T02:46:32.724Z,4.6
2023-03-18T02:51:32.617Z,4.5
2023-03-18T02:56:32.669Z,4.5
2023-03-18T03:01:32.705Z,4.5
2023-03-18T03:06:32.546Z,4.4
2023-03-18T03:11:32.516Z,4.3
2023-03-18T03:16:32.559Z,4.2
2023-03-18T03:21:32.572Z,4.2
2023-03-18T03:26:33.403Z,4.1
2023-03-18T03:31:33.140Z,4
2023-03-18T03:36:33.263Z,3.9
2023-03-18T03:41:32.594Z,3.9
2023-03-18T03:46:32.661Z,3.9
2023-03-18T03:51:32.520Z,3.8
2023-03-18T03:56:32.570Z,3.9
2023-03-18T04:01:32.659Z,3.9
2023-03-18T04:06:32.580Z,3.9
2023-03-18T04:11:32.783Z,3.9
2023-03-18T04:16:32.534Z,3.9
2023-03-18T04:21:32.964Z,4
2023-03-18T04:26:32.881Z,4.1
2023-03-18T04:31:32.631Z,4.3
2023-03-18T04:36:32.581Z,4.4
2023-03-18T04:41:32.688Z,4.4
2023-03-18T04:46:32.551Z,4.6
2023-03-18T04:51:32.616Z,4.9
2023-03-18T04:56:32.540Z,4.9
2023-03-18T05:01:32.578Z,4.9
2023-03-18T05:06:32.490Z,5
2023-03-18T05:11:32.564Z,4.9
2023-03-18T05:16:32.605Z,4.8
2023-03-18T05:21:32.630Z,4.8
2023-03-18T05:26:32.935Z,4.6
2023-03-18T05:31:32.873Z,4.4
2023-03-18T05:36:32.728Z,4.3
2023-03-18T05:41:32.632Z,4
2023-03-18T05:46:32.613Z,3.8
2023-03-18T05:51:32.654Z,3.8
2023-03-18T05:56:32.604Z,3.9
2023-03-18T06:01:32.668Z,3.8
2023-03-18T06:06:32.639Z,3.9
2023-03-18T06:11:32.533Z,4.1
2023-03-18T06:16:32.903Z,4.3
2023-03-18T06:21:33.289Z,4.4
2023-03-18T06:26:32.740Z,4.6
2023-03-18T06:31:32.863Z,4.8
2023-03-18T06:36:32.574Z,5.1
2023-03-18T06:41:32.801Z,5.4
2023-03-18T06:46:38.183Z,5.7
2023-03-18T06:51:37.793Z,5.9
2023-03-18T06:56:37.803Z,6.1
2023-03-18T07:01:37.781Z,6.3
2023-03-18T07:06:37.601Z,6.3
2023-03-18T07:11:37.741Z,6.4
2023-03-18T07:16:37.483Z,6.6
2023-03-18T07:21:37.888Z,6.7
2023-03-18T07:26:37.721Z,6.9
2023-03-18T07:31:37.645Z,7.1
2023-03-18T07:36:37.956Z,7.1
2023-03-18T07:46:41.676Z,7.4
2023-03-18T07:51:41.768Z,7.8
2023-03-18T07:56:41.844Z,8
2023-03-18T08:01:41.954Z,8.2
2023-03-18T08:11:41.882Z,8.6
2023-03-18T08:16:45.163Z,8.9
2023-03-18T08:21:42.095Z,9.3
2023-03-18T08:26:41.866Z,9.6
2023-03-18T08:31:45.423Z,10
2023-03-18T08:36:41.582Z,10.4
2023-03-18T08:41:43.267Z,10.6
2023-03-18T08:46:41.556Z,10.6
2023-03-18T09:01:45.129Z,11.8
2023-03-18T09:06:41.934Z,12.3
2023-03-18T09:11:41.566Z,13.7
2023-03-18T09:16:42.640Z,14.1
2023-03-18T09:21:42.727Z,14.4
2023-03-18T09:26:42.749Z,14.4
2023-03-18T09:31:42.587Z,14.7
2023-03-18T09:36:42.800Z,15.4
2023-03-18T09:41:42.905Z,15.6
2023-03-18T09:46:42.801Z,16
2023-03-18T09:51:42.796Z,16.2
2023-03-18T09:56:52.478Z,16.9
2023-03-18T10:01:42.798Z,17.1
2023-03-18T10:06:42.506Z,16.7
2023-03-18T10:11:42.820Z,17.3
2023-03-18T10:16:42.650Z,17.3
2023-03-18T10:21:53.270Z,17.5
2023-03-18T10:26:42.788Z,16.6
2023-03-18T10:31:42.846Z,16.9
2023-03-18T10:36:42.758Z,17.3
2023-03-18T10:41:42.702Z,17.3
2023-03-18T10:46:42.948Z,17.3
2023-03-18T10:51:42.809Z,17.4
2023-03-18T10:57:03.069Z,16.9
2023-03-18T11:01:42.774Z,16.4
2023-03-18T11:06:43.279Z,17.7
2023-03-18T11:11:42.839Z,17.7
2023-03-18T11:16:43.126Z,18.3
2023-03-18T11:21:42.754Z,17.8
2023-03-18T11:26:42.734Z,17.9
2023-03-18T11:31:42.989Z,18.4
2023-03-18T11:36:42.956Z,18.5
2023-03-18T11:41:42.698Z,18.8
2023-03-18T11:46:42.797Z,19.2
2023-03-18T11:51:42.765Z,20.1
2023-03-18T11:57:11.532Z,20.2
2023-03-18T12:01:42.907Z,20.1
2023-03-18T12:06:42.983Z,21
2023-03-18T12:11:42.666Z,20
2023-03-18T12:16:42.809Z,20.5
2023-03-18T12:21:42.701Z,21.4
2023-03-18T12:26:42.778Z,23
2023-03-18T12:31:42.894Z,22.8
2023-03-18T12:36:42.929Z,22.6
2023-03-18T12:41:42.799Z,23.6
2023-03-18T12:46:42.807Z,24.4
2023-03-18T12:51:42.617Z,23.3
2023-03-18T12:57:01.128Z,22.3
2023-03-18T13:01:42.775Z,23.1
2023-03-18T13:06:44.199Z,24.4
2023-03-18T13:11:42.929Z,24.8
2023-03-18T13:16:42.988Z,24.4
2023-03-18T13:21:42.978Z,24.6
2023-03-18T13:26:43.205Z,24.2
2023-03-18T13:31:42.910Z,25.4
2023-03-18T13:36:42.773Z,24.6
2023-03-18T13:41:42.876Z,23.8
2023-03-18T13:46:43.147Z,24.7
2023-03-18T13:51:42.805Z,21.4
2023-03-18T13:57:04.502Z,21.6
2023-03-18T14:01:42.803Z,21.6
2023-03-18T14:06:42.717Z,21.8
2023-03-18T14:11:45.165Z,23.1
2023-03-18T14:16:42.755Z,22
2023-03-18T14:21:43.269Z,21.4
2023-03-18T14:26:42.704Z,20.5
2023-03-18T14:31:43.045Z,20.2
2023-03-18T14:36:43.015Z,19.8
2023-03-18T14:41:42.843Z,19.9
2023-03-18T14:46:43.144Z,19.3
2023-03-18T14:51:42.689Z,19.3
2023-03-18T15:01:42.836Z,19.1
2023-03-18T15:06:42.681Z,18.4
2023-03-18T15:11:42.667Z,18
2023-03-18T15:16:42.750Z,18.1
2023-03-18T15:21:43.076Z,18
2023-03-18T15:26:42.718Z,18.1
2023-03-18T15:31:43.476Z,17.9
2023-03-18T15:36:42.978Z,18.1
2023-03-18T15:41:42.889Z,18.1
2023-03-18T15:46:42.734Z,17.8
2023-03-18T15:51:42.838Z,17.7
2023-03-18T15:57:00.588Z,17.6
2023-03-18T16:01:42.880Z,17.4
2023-03-18T16:06:42.644Z,17.4
2023-03-18T16:11:42.772Z,17.3
2023-03-18T16:16:42.742Z,17.3
2023-03-18T16:21:42.672Z,17.1
2023-03-18T16:26:42.967Z,16.8
2023-03-18T16:31:43.198Z,16.5
2023-03-18T16:36:43.171Z,16.3
2023-03-18T16:41:46.584Z,16.1
2023-03-18T16:51:47.892Z,15.8
2023-03-18T16:57:01.588Z,15.5
2023-03-18T17:01:43.030Z,15.3
2023-03-18T17:06:42.735Z,15.1
2023-03-18T17:11:42.783Z,14.9
2023-03-18T17:16:42.739Z,14.8
2023-03-18T17:21:42.949Z,14.5
2023-03-18T17:26:43.003Z,14.3
2023-03-18T17:31:42.753Z,14.1
2023-03-18T17:36:44.186Z,14
2023-03-18T17:41:42.851Z,13.8
2023-03-18T17:46:42.835Z,13.6
2023-03-18T17:51:43.021Z,13.4
2023-03-18T18:01:47.372Z,13.1
2023-03-18T18:16:43.070Z,12.8
2023-03-18T18:21:43.150Z,12.9
2023-03-18T18:26:42.764Z,12.8
2023-03-18T18:31:43.015Z,12.7
2023-03-18T18:36:43.623Z,12.6
2023-03-18T18:41:42.980Z,12.8
2023-03-18T18:46:43.369Z,12.9
2023-03-18T18:51:43.173Z,12.8
2023-03-18T18:56:42.801Z,12.6
2023-03-18T19:01:42.877Z,12.4
2023-03-18T19:06:42.777Z,12.4
2023-03-18T19:11:43.490Z,12.2
2023-03-18T19:16:42.691Z,12.1
2023-03-18T19:21:42.824Z,12.2
2023-03-18T19:26:42.887Z,12.2
2023-03-18T19:31:43.016Z,12.1
2023-03-18T19:36:42.745Z,12.1
2023-03-18T19:41:42.892Z,12.1
2023-03-18T19:46:42.778Z,12.1
2023-03-18T19:51:42.766Z,11.9
2023-03-18T19:56:42.721Z,11.8
2023-03-18T20:11:42.854Z,11.1
2023-03-18T20:16:42.878Z,10.8
2023-03-18T20:21:42.930Z,10.4
2023-03-18T20:26:42.939Z,10.3
2023-03-18T20:31:42.661Z,10.1
2023-03-18T20:36:42.979Z,10
2023-03-18T20:41:43.084Z,9.8
2023-03-18T20:46:42.974Z,9.7
2023-03-18T20:51:42.775Z,9.6
2023-03-18T20:56:42.913Z,9.6
2023-03-18T21:01:42.842Z,9.6
2023-03-18T21:06:42.974Z,9.5
2023-03-18T21:11:42.806Z,9.4
2023-03-18T21:16:42.859Z,9.3
2023-03-18T21:21:42.805Z,9.2
2023-03-18T21:26:51.327Z,9.1
2023-03-18T21:31:42.728Z,9
2023-03-18T21:36:44.000Z,8.9
2023-03-18T21:41:43.031Z,8.8
2023-03-18T21:46:42.799Z,8.8
2023-03-18T21:51:42.736Z,8.6
2023-03-18T21:56:43.267Z,8.6
2023-03-18T22:01:42.981Z,8.4
2023-03-18T22:06:42.821Z,8.4
2023-03-18T22:11:43.075Z,8.4
2023-03-18T22:16:43.060Z,8.3
2023-03-18T22:21:42.962Z,8.3
2023-03-18T22:26:42.957Z,8.3
2023-03-18T22:31:42.829Z,8.1
2023-03-18T22:36:42.922Z,7.9
2023-03-18T22:41:42.998Z,7.8
2023-03-18T22:46:42.898Z,7.7
2023-03-18T22:51:42.831Z,7.6
2023-03-18T22:56:42.951Z,7.4
2023-03-18T23:01:42.970Z,7.4
2023-03-18T23:06:43.364Z,7.5
2023-03-18T23:11:43.315Z,7.3
2023-03-18T23:16:42.955Z,7.3
2023-03-18T23:21:43.083Z,7.2
2023-03-18T23:26:42.961Z,7.1
2023-03-18T23:31:43.089Z,7.1
2023-03-18T23:36:42.882Z,7.1
2023-03-18T23:41:43.084Z,7.1
2023-03-18T23:46:43.357Z,7
2023-03-18T23:51:42.937Z,6.9
2023-03-18T23:56:42.879Z,7
